Time;durP1;ratioP1;P1;durP2;ratioP2;P2;SDS_P1;SDS_P2;PMS_P1;PMS_P2;Temp;Humidity;BMP_temperature;BMP_pressure;BME280_temperature;BME280_humidity;BME280_pressure;Samples;Min_cycle;Max_cycle;Signal;HPM_P1;HPM_P2
2021/07/03 00:02:23;;;;;;;33.10;13.85;;;;;;;13.79;92.42;101926.97;4952533;28;20063;-69
2021/07/03 00:04:50;;;;;;;28.42;12.27;;;;;;;13.78;92.66;101919.81;4958966;28;20113;-69
2021/07/03 00:07:18;;;;;;;34.05;14.75;;;;;;;13.75;92.84;101914.53;4956881;28;21277;-69
2021/07/03 00:09:46;;;;;;;27.08;12.65;;;;;;;13.73;92.02;101918.19;4953134;28;20149;-68
2021/07/03 00:12:15;;;;;;;28.25;12.23;;;;;;;13.71;92.44;101912.88;4958286;28;20063;-69
2021/07/03 00:14:43;;;;;;;26.83;12.55;;;;;;;13.70;92.80;101905.75;4958728;28;20137;-69
2021/07/03 00:17:10;;;;;;;25.33;12.05;;;;;;;13.69;92.13;101906.69;4956070;28;20063;-69
2021/07/03 00:19:38;;;;;;;34.65;12.90;;;;;;;13.68;92.68;101907.59;4954646;28;20497;-70
2021/07/03 00:22:06;;;;;;;29.65;13.90;;;;;;;13.69;93.34;101900.41;4960686;28;20133;-69
2021/07/03 00:24:34;;;;;;;32.63;14.82;;;;;;;13.65;94.35;101902.31;4961478;28;20348;-69
2021/07/03 00:27:02;;;;;;;31.48;14.95;;;;;;;13.63;93.77;101905.03;4964382;28;20082;-68
2021/07/03 00:29:31;;;;;;;28.10;12.48;;;;;;;13.60;92.89;101902.47;4960619;28;20105;-68
2021/07/03 00:31:58;;;;;;;36.03;16.25;;;;;;;13.61;94.14;101908.69;4967942;28;20137;-68
2021/07/03 00:34:26;;;;;;;32.25;15.25;;;;;;;13.64;94.23;101905.94;4957637;28;20069;-68
2021/07/03 00:36:54;;;;;;;35.17;15.88;;;;;;;13.69;94.77;101905.78;4964974;28;20043;-68
2021/07/03 00:39:21;;;;;;;32.22;15.40;;;;;;;13.65;94.06;101907.69;4956097;28;20062;-68
2021/07/03 00:41:49;;;;;;;35.35;15.20;;;;;;;13.59;93.92;101900.69;4961472;28;20102;-68
2021/07/03 00:44:25;;;;;;;30.67;14.77;;;;;;;13.55;94.15;101901.72;4964236;28;20109;-68
2021/07/03 00:46:54;;;;;;;35.55;16.17;;;;;;;13.54;95.04;101902.63;4961739;28;20121;-68
2021/07/03 00:49:22;;;;;;;36.28;16.58;;;;;;;13.56;95.19;101897.22;4962261;28;20405;-69
2021/07/03 00:51:50;;;;;;;39.10;17.33;;;;;;;13.56;95.54;101898.09;4964121;28;20094;-68
2021/07/03 00:54:20;;;;;;;41.30;17.65;;;;;;;13.54;95.47;101897.25;4958295;28;20098;-69
2021/07/03 00:56:48;;;;;;;40.50;18.52;;;;;;;13.54;94.83;101905.31;4963841;28;20094;-69
2021/07/03 00:59:16;;;;;;;38.67;17.30;;;;;;;13.48;94.50;101902.78;4958858;28;20090;-69
2021/07/03 01:01:44;;;;;;;40.95;17.55;;;;;;;13.47;94.94;101902.81;4962529;28;20106;-68
2021/07/03 01:04:13;;;;;;;41.67;18.92;;;;;;;13.46;96.39;101899.25;4963085;28;20514;-68
2021/07/03 01:06:41;;;;;;;37.10;18.02;;;;;;;13.45;96.25;101897.53;4961513;28;20141;-68
2021/07/03 01:09:08;;;;;;;42.15;19.55;;;;;;;13.42;95.26;101898.47;4964154;28;20070;-68
2021/07/03 01:11:36;;;;;;;39.95;17.73;;;;;;;13.40;95.28;101897.63;4960691;28;20070;-69
2021/07/03 01:14:04;;;;;;;42.90;18.20;;;;;;;13.41;95.83;101896.69;4962682;28;20097;-68
2021/07/03 01:16:31;;;;;;;47.22;19.50;;;;;;;13.43;96.82;101894.88;4961949;28;20105;-69
2021/07/03 01:18:59;;;;;;;43.63;20.92;;;;;;;13.47;97.26;101903.72;4964342;28;20233;-68
2021/07/03 01:21:29;;;;;;;41.63;18.50;;;;;;;13.48;96.93;101904.59;4961251;28;20067;-68
2021/07/03 01:23:58;;;;;;;42.85;19.42;;;;;;;13.48;97.31;101885.81;4964679;28;20067;-69
2021/07/03 01:26:26;;;;;;;48.78;21.13;;;;;;;13.49;97.82;101895.63;4960903;28;20050;-70
2021/07/03 01:28:54;;;;;;;47.47;20.33;;;;;;;13.48;97.34;101894.72;4967582;28;20133;-68
2021/07/03 01:31:22;;;;;;;47.30;21.95;;;;;;;13.51;98.12;101891.97;4959264;28;20662;-69
2021/07/03 01:33:50;;;;;;;42.97;20.08;;;;;;;13.50;97.41;101892.91;4960236;28;20055;-68
2021/07/03 01:36:17;;;;;;;49.53;21.20;;;;;;;13.54;97.98;101893.72;4958882;28;20311;-70
2021/07/03 01:38:45;;;;;;;57.38;25.00;;;;;;;13.57;98.94;101888.22;4958486;28;20094;-70
2021/07/03 01:41:14;;;;;;;51.67;21.83;;;;;;;13.55;97.83;101880.25;4957572;28;20129;-70
2021/07/03 01:43:42;;;;;;;51.13;23.35;;;;;;;13.58;98.67;101876.59;4961975;28;20122;-70
2021/07/03 01:46:10;;;;;;;56.08;23.20;;;;;;;13.62;97.98;101876.47;4956958;28;20548;-70
2021/07/03 01:48:39;;;;;;;58.30;24.25;;;;;;;13.66;99.39;101877.25;4963017;28;20058;-70
2021/07/03 01:51:07;;;;;;;57.47;25.52;;;;;;;13.71;99.44;101874.47;4953685;28;20497;-70
2021/07/03 01:53:35;;;;;;;54.63;24.30;;;;;;;13.72;99.26;101881.56;4961970;28;20063;-70
2021/07/03 01:56:03;;;;;;;57.90;25.85;;;;;;;13.73;99.56;101876.16;4961207;28;20129;-69
2021/07/03 01:58:32;;;;;;;49.92;22.13;;;;;;;13.74;99.12;101869.88;4957611;28;20595;-69
2021/07/03 02:01:00;;;;;;;54.25;24.98;;;;;;;13.78;99.03;101874.22;4960572;28;21493;-69
2021/07/03 02:03:28;;;;;;;54.28;25.00;;;;;;;13.82;99.10;101861.59;4954669;28;20434;-70
2021/07/03 02:05:56;;;;;;;61.33;26.10;;;;;;;13.86;99.31;101857.91;4960717;28;20121;-70
2021/07/03 02:08:24;;;;;;;55.00;25.08;;;;;;;13.89;99.21;101849.75;4955562;28;20066;-70
2021/07/03 02:10:52;;;;;;;51.42;24.67;;;;;;;13.93;99.34;101850.56;4959329;28;20125;-70
2021/07/03 02:13:19;;;;;;;59.63;27.38;;;;;;;13.92;99.41;101846.97;4957855;28;20109;-70
2021/07/03 02:15:48;;;;;;;61.85;28.17;;;;;;;13.93;100.00;101850.56;4961970;28;20055;-68
2021/07/03 02:18:16;;;;;;;60.20;27.65;;;;;;;13.98;99.55;101845.94;4954986;28;20077;-70
2021/07/03 02:20:44;;;;;;;60.28;26.52;;;;;;;13.97;99.99;101837.00;4960640;28;20394;-70
2021/07/03 02:23:12;;;;;;;62.03;27.08;;;;;;;13.96;99.83;101839.72;4956902;28;20154;-70
2021/07/03 02:25:40;;;;;;;65.55;29.58;;;;;;;13.96;99.91;101840.63;4958859;28;20137;-68
2021/07/03 02:28:08;;;;;;;54.97;25.98;;;;;;;13.94;99.41;101830.84;4955432;28;20129;-68
2021/07/03 02:30:35;;;;;;;59.80;26.27;;;;;;;13.97;99.39;101825.38;4960369;28;20362;-68
2021/07/03 02:33:05;;;;;;;58.08;25.85;;;;;;;13.98;99.92;101830.72;4957320;28;20149;-68
2021/07/03 02:35:32;;;;;;;63.58;28.38;;;;;;;14.01;100.00;101835.09;4960235;28;20525;-68
2021/07/03 02:38:00;;;;;;;53.78;24.98;;;;;;;14.02;100.00;101836.84;4957236;28;20069;-68
2021/07/03 02:40:28;;;;;;;58.50;26.30;;;;;;;14.02;100.00;101836.84;4958245;28;20098;-69
2021/07/03 02:42:56;;;;;;;69.07;30.17;;;;;;;14.04;100.00;101842.19;4960842;28;20075;-69
2021/07/03 02:45:24;;;;;;;61.88;28.23;;;;;;;14.05;100.00;101839.44;4956708;28;20205;-68
2021/07/03 02:47:52;;;;;;;57.30;26.13;;;;;;;14.10;100.00;101833.94;4958103;28;20070;-68
2021/07/03 02:50:21;;;;;;;66.43;30.02;;;;;;;14.11;100.00;101836.56;4956292;28;20063;-70
2021/07/03 02:52:49;;;;;;;69.05;31.42;;;;;;;14.18;100.00;101829.19;4960855;28;20117;-71
2021/07/03 02:55:17;;;;;;;73.43;33.60;;;;;;;14.14;100.00;101824.88;4955907;28;20595;-69
2021/07/03 02:57:45;;;;;;;62.92;30.90;;;;;;;14.14;100.00;101819.50;4960768;28;20083;-68
2021/07/03 03:00:15;;;;;;;69.88;30.25;;;;;;;14.13;100.00;101818.63;4956046;28;20175;-68
2021/07/03 03:02:43;;;;;;;69.30;30.75;;;;;;;14.13;100.00;101824.00;4958474;28;20070;-68
2021/07/03 03:05:14;;;;;;;68.18;30.08;;;;;;;14.15;100.00;101819.44;4958088;28;20403;-69
2021/07/03 03:07:44;;;;;;;71.95;31.40;;;;;;;14.18;100.00;101819.38;4963319;28;20046;-69
2021/07/03 03:10:14;;;;;;;66.20;29.25;;;;;;;14.16;100.00;101820.31;4959498;28;20063;-69
2021/07/03 03:12:42;;;;;;;78.80;33.40;;;;;;;14.15;99.91;101807.84;4958386;28;20067;-69
2021/07/03 03:15:14;;;;;;;79.28;32.50;;;;;;;14.14;99.98;101812.31;4956545;28;20410;-69
2021/07/03 03:17:44;;;;;;;72.55;33.33;;;;;;;14.16;100.00;101802.41;4959329;28;20113;-70
2021/07/03 03:20:13;;;;;;;72.43;32.65;;;;;;;14.17;100.00;101808.66;4956536;28;20763;-69
2021/07/03 03:22:42;;;;;;;77.60;32.88;;;;;;;14.19;100.00;101806.81;4958801;28;20258;-69
2021/07/03 03:25:12;;;;;;;82.57;33.42;;;;;;;14.22;100.00;101811.19;4956674;28;20154;-69
2021/07/03 03:27:40;;;;;;;71.72;31.00;;;;;;;14.22;99.98;101806.72;4958853;28;20063;-70
2021/07/03 03:30:09;;;;;;;83.18;34.95;;;;;;;14.28;100.00;101802.94;4955127;28;20066;-69
2021/07/03 03:32:37;;;;;;;74.20;32.22;;;;;;;14.28;99.83;101805.63;4956893;28;20102;-69
2021/07/03 03:35:08;;;;;;;72.50;32.90;;;;;;;14.31;100.00;101810.91;4955798;28;20062;-69
2021/07/03 03:37:36;;;;;;;80.07;33.95;;;;;;;14.36;99.68;101803.59;4958772;28;20118;-68
2021/07/03 03:40:04;;;;;;;85.10;36.42;;;;;;;14.35;99.58;101807.19;4957688;28;20576;-69
2021/07/03 03:42:34;;;;;;;80.90;34.63;;;;;;;14.33;99.77;101807.22;4956395;28;20114;-68
2021/07/03 03:45:03;;;;;;;88.22;34.83;;;;;;;14.34;99.87;101806.31;4957424;28;20284;-69
2021/07/03 03:47:31;;;;;;;79.57;34.35;;;;;;;14.35;99.89;101807.19;4956182;28;20445;-68
2021/07/03 03:49:59;;;;;;;74.68;33.28;;;;;;;14.34;99.66;101800.06;4957493;28;20135;-69
2021/07/03 03:52:27;;;;;;;81.32;38.15;;;;;;;14.38;99.41;101807.09;4953141;28;20339;-69
2021/07/03 03:54:54;;;;;;;74.10;34.72;;;;;;;14.37;99.70;101800.84;4961944;28;20062;-69
2021/07/03 03:57:22;;;;;;;91.10;35.45;;;;;;;14.38;99.55;101802.59;4955075;28;20078;-69
2021/07/03 03:59:52;;;;;;;78.55;34.55;;;;;;;14.41;99.35;101798.06;4957766;28;20070;-70
2021/07/03 04:02:21;;;;;;;79.00;36.15;;;;;;;14.41;99.59;101806.13;4956529;28;20063;-70
2021/07/03 04:04:49;;;;;;;81.93;34.38;;;;;;;14.40;99.47;101813.28;4957221;28;20376;-69
2021/07/03 04:07:18;;;;;;;85.15;34.97;;;;;;;14.41;99.20;101800.75;4954427;28;20524;-70
2021/07/03 04:09:45;;;;;;;73.95;34.50;;;;;;;14.43;99.75;101812.31;4959691;28;21460;-69
2021/07/03 04:12:13;;;;;;;81.05;34.95;;;;;;;14.44;99.33;101817.66;4954651;28;20454;-69
2021/07/03 04:14:41;;;;;;;82.13;36.95;;;;;;;14.42;99.13;101805.19;4961991;28;20169;-69
2021/07/03 04:17:10;;;;;;;77.85;34.67;;;;;;;14.44;99.52;101804.22;4954304;28;20212;-71
2021/07/03 04:19:38;;;;;;;82.32;36.70;;;;;;;14.45;99.07;101808.63;4960100;28;20069;-69
2021/07/03 04:22:06;;;;;;;81.10;36.60;;;;;;;14.47;99.18;101798.75;4960300;28;20079;-69
2021/07/03 04:24:34;;;;;;;78.50;33.95;;;;;;;14.50;98.95;101795.94;4955511;28;20637;-69
2021/07/03 04:27:03;;;;;;;73.43;34.53;;;;;;;14.53;99.11;101797.66;4960109;28;20067;-70
2021/07/03 04:29:31;;;;;;;77.63;34.13;;;;;;;14.58;98.92;101795.69;4954426;28;20113;-69
2021/07/03 04:31:59;;;;;;;84.38;36.58;;;;;;;14.62;98.83;101801.88;4960039;28;20163;-70
2021/07/03 04:34:28;;;;;;;85.63;37.72;;;;;;;14.67;98.67;101794.53;4958305;28;20071;-69
2021/07/03 04:36:57;;;;;;;80.00;34.50;;;;;;;14.75;98.17;101796.03;4956806;28;20054;-70
2021/07/03 04:39:25;;;;;;;83.78;35.80;;;;;;;14.81;97.98;101805.66;4956712;28;20063;-70
2021/07/03 04:41:53;;;;;;;85.03;36.13;;;;;;;14.90;97.75;101794.63;4960944;28;20102;-70
2021/07/03 04:44:21;;;;;;;78.07;34.90;;;;;;;14.99;97.37;101798.78;4955775;28;20450;-70
2021/07/03 04:46:49;;;;;;;84.20;38.40;;;;;;;15.03;97.29;101794.19;4963745;28;20070;-70
2021/07/03 04:49:17;;;;;;;88.15;36.72;;;;;;;15.10;97.21;101793.91;4958178;28;20390;-70
2021/07/03 04:51:46;;;;;;;76.68;35.50;;;;;;;15.16;96.92;101789.25;4960742;28;20110;-70
2021/07/03 04:54:14;;;;;;;79.90;35.72;;;;;;;15.20;96.75;101783.69;4959084;28;20066;-70
2021/07/03 04:56:41;;;;;;;83.47;34.58;;;;;;;15.30;96.66;101784.25;4957389;28;20063;-70
2021/07/03 04:59:09;;;;;;;82.07;36.15;;;;;;;15.42;95.65;101781.09;4956960;28;20105;-70
2021/07/03 05:01:37;;;;;;;78.78;35.92;;;;;;;15.57;94.86;101781.47;4959524;28;20141;-70
2021/07/03 05:04:05;;;;;;;84.50;35.83;;;;;;;15.77;93.97;101780.72;4954861;28;20081;-69
2021/07/03 05:06:33;;;;;;;81.03;37.40;;;;;;;15.92;93.54;101779.22;4959275;28;20091;-70
2021/07/03 05:09:01;;;;;;;85.32;36.13;;;;;;;16.03;92.87;101775.19;4956611;28;23326;-70
2021/07/03 05:11:29;;;;;;;80.85;36.53;;;;;;;16.14;92.01;101779.25;4963724;28;20137;-69
2021/07/03 05:13:57;;;;;;;81.47;36.33;;;;;;;16.33;91.34;101771.28;4963785;28;20071;-70
2021/07/03 05:16:24;;;;;;;74.65;35.17;;;;;;;16.24;90.75;101770.75;4957239;28;20062;-70
2021/07/03 05:18:52;;;;;;;80.72;36.25;;;;;;;16.15;91.11;101768.41;4962947;28;20063;-70
2021/07/03 05:21:20;;;;;;;70.55;33.58;;;;;;;16.09;91.61;101765.09;4956267;28;20066;-70
2021/07/03 05:23:48;;;;;;;80.05;36.78;;;;;;;15.94;91.65;101767.47;4961192;28;20066;-70
2021/07/03 05:26:17;;;;;;;74.00;33.00;;;;;;;15.95;91.75;101768.34;4960118;28;20073;-69
2021/07/03 05:28:45;;;;;;;76.80;33.13;;;;;;;16.27;91.20;101772.44;4959376;28;20457;-70
2021/07/03 05:31:12;;;;;;;79.55;34.38;;;;;;;16.56;90.56;101779.28;4957897;28;20101;-70
2021/07/03 05:33:40;;;;;;;77.75;35.33;;;;;;;16.85;88.94;101768.25;4959952;28;20069;-70
2021/07/03 05:36:08;;;;;;;86.70;36.83;;;;;;;17.12;87.34;101777.81;4960256;28;20648;-70
2021/07/03 05:38:41;;;;;;;78.18;34.75;;;;;;;17.35;86.05;101770.50;4959756;28;20058;-70
2021/07/03 05:41:09;;;;;;;78.95;36.85;;;;;;;17.56;85.45;101768.63;4957489;28;20063;-70
2021/07/03 05:43:38;;;;;;;73.03;33.45;;;;;;;17.76;83.96;101770.41;4962627;28;20063;-69
2021/07/03 05:46:07;;;;;;;79.30;36.50;;;;;;;17.99;83.27;101766.59;4957880;28;20062;-70
2021/07/03 05:48:35;;;;;;;71.03;36.30;;;;;;;18.10;82.25;101772.38;4959808;28;20857;-68
2021/07/03 05:51:04;;;;;;;79.05;34.42;;;;;;;18.19;82.25;101762.06;4958000;28;20410;-70
2021/07/03 05:53:32;;;;;;;71.18;34.50;;;;;;;18.34;80.91;101753.19;4961726;28;20130;-70
2021/07/03 05:56:00;;;;;;;68.88;33.35;;;;;;;18.45;81.06;101763.47;4960055;28;20121;-68
2021/07/03 05:58:27;;;;;;;67.28;32.53;;;;;;;18.62;81.35;101757.19;4959895;28;20145;-68
2021/07/03 06:00:57;;;;;;;69.70;34.85;;;;;;;18.66;79.84;101756.97;4956613;28;20113;-68
2021/07/03 06:03:25;;;;;;;69.38;33.70;;;;;;;18.96;78.86;101758.19;4960283;28;20061;-68
2021/07/03 06:05:53;;;;;;;66.10;33.80;;;;;;;19.07;78.20;101757.59;4958971;28;20090;-70
2021/07/03 06:08:21;;;;;;;61.33;33.08;;;;;;;19.22;77.24;101748.66;4957768;28;20407;-70
2021/07/03 06:10:50;;;;;;;69.75;33.22;;;;;;;19.12;77.07;101758.22;4958752;28;20131;-70
2021/07/03 06:13:18;;;;;;;60.97;31.60;;;;;;;19.36;76.62;101754.19;4955868;28;20166;-69
2021/07/03 06:15:46;;;;;;;62.53;32.47;;;;;;;19.28;76.14;101750.16;4961725;28;20063;-70
2021/07/03 06:18:15;;;;;;;69.70;32.97;;;;;;;19.53;75.69;101741.56;4955081;28;20055;-71
2021/07/03 06:20:44;;;;;;;69.25;34.53;;;;;;;19.80;75.66;101744.59;4959156;28;20086;-70
2021/07/03 06:23:12;;;;;;;67.05;31.65;;;;;;;20.11;74.66;101741.00;4954633;28;20066;-69
2021/07/03 06:25:40;;;;;;;68.03;33.08;;;;;;;20.24;72.95;101741.16;4957490;28;20069;-70
2021/07/03 06:28:08;;;;;;;58.47;32.22;;;;;;;20.64;72.58;101735.25;4961945;28;20059;-68
2021/07/03 06:30:36;;;;;;;55.13;30.45;;;;;;;20.78;71.66;101735.25;4963220;28;20051;-69
2021/07/03 06:33:04;;;;;;;63.72;31.02;;;;;;;20.84;70.98;101739.44;4958608;28;20086;-69
2021/07/03 06:35:33;;;;;;;61.10;30.52;;;;;;;20.99;70.59;101735.78;4960959;28;20071;-69
2021/07/03 06:38:04;;;;;;;62.13;31.37;;;;;;;21.25;69.95;101736.88;4955535;28;20113;-70
2021/07/03 06:40:32;;;;;;;60.42;30.48;;;;;;;21.34;68.27;101740.84;4959453;28;20090;-69
2021/07/03 06:43:00;;;;;;;58.38;30.40;;;;;;;21.44;68.78;101743.84;4958839;28;20085;-70
2021/07/03 06:45:28;;;;;;;57.00;29.67;;;;;;;21.55;67.87;101737.75;4958288;28;20358;-69
2021/07/03 06:47:56;;;;;;;53.08;30.35;;;;;;;21.56;68.37;101734.09;4954493;28;21323;-70
2021/07/03 06:50:24;;;;;;;59.88;29.27;;;;;;;21.74;66.82;101730.19;4961157;28;20493;-68
2021/07/03 06:52:53;;;;;;;54.65;29.38;;;;;;;21.80;66.46;101723.47;4955020;28;20067;-68
2021/07/03 06:55:20;;;;;;;54.13;27.88;;;;;;;22.07;66.35;101730.78;4958155;28;20095;-69
2021/07/03 06:57:48;;;;;;;51.35;27.30;;;;;;;22.13;65.59;101733.06;4959020;28;20067;-69
2021/07/03 07:00:17;;;;;;;53.00;27.05;;;;;;;22.24;64.86;101727.78;4957973;28;20191;-68
2021/07/03 07:02:45;;;;;;;52.03;26.58;;;;;;;22.23;64.85;101722.47;4957368;28;20466;-69
2021/07/03 07:05:13;;;;;;;52.97;27.50;;;;;;;22.22;63.77;101727.03;4956573;28;20070;-72
2021/07/03 07:07:41;;;;;;;50.80;27.42;;;;;;;22.53;63.50;101725.84;4957486;28;20180;-69
2021/07/03 07:10:11;;;;;;;52.20;27.42;;;;;;;22.67;64.26;101724.88;4956826;28;20450;-69
2021/07/03 07:12:39;;;;;;;51.35;26.63;;;;;;;22.69;63.53;101727.50;4961016;28;20066;-69
2021/07/03 07:15:09;;;;;;;48.08;26.63;;;;;;;22.61;63.57;101730.75;4956579;28;20067;-69
2021/07/03 07:17:36;;;;;;;46.80;27.30;;;;;;;23.03;62.76;101726.00;4960432;28;20622;-69
2021/07/03 07:20:05;;;;;;;50.58;26.92;;;;;;;22.48;62.96;101721.69;4953966;28;20067;-70
2021/07/03 07:22:33;;;;;;;42.22;24.90;;;;;;;22.66;63.12;101738.59;4960917;28;20125;-69
2021/07/03 07:25:03;;;;;;;45.13;24.42;;;;;;;22.66;63.99;101734.03;4957602;28;20062;-70
2021/07/03 07:27:32;;;;;;;40.92;22.58;;;;;;;22.75;63.32;101727.94;4960273;28;20121;-69
2021/07/03 07:30:00;;;;;;;43.80;24.92;;;;;;;22.85;63.56;101727.28;4956838;28;20077;-69
2021/07/03 07:32:28;;;;;;;46.60;24.85;;;;;;;23.28;61.75;101719.72;4957599;28;20070;-69
2021/07/03 07:34:58;;;;;;;43.03;22.60;;;;;;;22.82;62.00;101728.38;4957078;28;20109;-70
2021/07/03 07:37:26;;;;;;;38.17;22.05;;;;;;;22.98;61.90;101719.16;4960899;28;20094;-70
2021/07/03 07:39:54;;;;;;;41.83;21.25;;;;;;;24.23;60.18;101717.28;4957329;28;20458;-69
2021/07/03 07:42:21;;;;;;;40.47;23.75;;;;;;;24.17;58.97;101714.13;4960124;28;20059;-68
2021/07/03 07:44:50;;;;;;;38.70;22.25;;;;;;;24.09;59.53;101714.69;4957053;28;20458;-69
2021/07/03 07:47:22;;;;;;;35.15;19.35;;;;;;;24.18;57.79;101703.13;4956276;28;20067;-69
2021/07/03 07:49:49;;;;;;;37.92;20.63;;;;;;;23.47;58.45;101711.06;4957980;28;20298;-69
2021/07/03 07:52:17;;;;;;;36.58;20.45;;;;;;;23.66;59.01;101702.41;4958978;28;20074;-69
2021/07/03 07:54:45;;;;;;;36.67;20.20;;;;;;;23.53;59.64;101707.03;4960336;28;20508;-70
2021/07/03 07:57:12;;;;;;;37.63;22.60;;;;;;;23.22;60.44;101702.94;4953841;28;20439;-69
2021/07/03 07:59:40;;;;;;;37.08;22.08;;;;;;;22.85;61.32;101702.81;4958091;28;20055;-70
2021/07/03 08:02:09;;;;;;;32.35;19.13;;;;;;;22.68;60.30;101704.88;4955999;28;20070;-70
2021/07/03 08:04:37;;;;;;;34.08;18.08;;;;;;;22.71;60.49;101696.50;4961414;28;20062;-71
2021/07/03 08:07:05;;;;;;;34.20;18.33;;;;;;;22.75;59.95;101702.59;4960204;28;20070;-70
2021/07/03 08:09:57;;;;;;;33.10;18.60;;;;;;;22.70;61.79;101693.88;4961046;28;20055;-70
2021/07/03 08:12:24;;;;;;;34.35;20.13;;;;;;;22.78;62.17;101698.78;4956932;28;20457;-70
2021/07/03 08:14:52;;;;;;;39.85;20.02;;;;;;;22.84;61.76;101693.78;4958233;28;20121;-70
2021/07/03 08:17:21;;;;;;;34.92;19.73;;;;;;;22.75;61.61;101699.88;4956046;28;20098;-71
2021/07/03 08:19:49;;;;;;;35.72;19.50;;;;;;;22.72;61.75;101700.09;4959036;28;20077;-70
2021/07/03 08:22:16;;;;;;;33.75;19.77;;;;;;;22.77;61.81;101697.06;4955574;28;20071;-71
2021/07/03 08:24:44;;;;;;;34.25;19.45;;;;;;;22.54;62.62;101689.53;4960516;28;20067;-71
2021/07/03 08:27:16;;;;;;;33.15;19.13;;;;;;;22.42;62.27;101693.06;4956213;28;20390;-70
2021/07/03 08:29:44;;;;;;;35.50;20.45;;;;;;;22.32;63.25;101690.13;4960910;28;20070;-70
2021/07/03 08:32:12;;;;;;;39.60;19.67;;;;;;;22.28;63.29;101691.28;4957809;28;20047;-70
2021/07/03 08:34:41;;;;;;;31.33;18.10;;;;;;;22.26;62.93;101684.19;4958820;28;20059;-69
2021/07/03 08:37:09;;;;;;;31.73;18.23;;;;;;;22.14;63.26;101686.75;4957020;28;20067;-69
2021/07/03 08:39:36;;;;;;;38.50;19.02;;;;;;;22.31;63.56;101682.94;4956746;28;20062;-70
2021/07/03 08:42:04;;;;;;;34.92;18.98;;;;;;;22.30;62.17;101678.47;4958040;28;20059;-69
2021/07/03 08:44:36;;;;;;;32.85;18.05;;;;;;;22.43;62.21;101680.38;4961319;28;20084;-69
2021/07/03 08:47:04;;;;;;;32.15;16.48;;;;;;;22.43;62.00;101689.38;4962076;28;20109;-70
2021/07/03 08:49:32;;;;;;;35.97;19.52;;;;;;;22.29;62.75;101689.47;4956844;28;20101;-70
2021/07/03 08:52:01;;;;;;;33.50;17.73;;;;;;;22.41;62.54;101683.19;4963868;28;20073;-70
2021/07/03 08:54:29;;;;;;;30.58;17.35;;;;;;;22.38;62.57;101688.81;4959320;28;20370;-69
2021/07/03 08:57:00;;;;;;;30.60;18.33;;;;;;;22.29;62.34;101689.47;4961249;28;21221;-69
2021/07/03 08:59:30;;;;;;;34.33;18.25;;;;;;;22.34;62.95;101676.44;4963492;28;20157;-70
2021/07/03 09:01:59;;;;;;;35.22;19.52;;;;;;;22.08;63.42;101679.00;4961486;28;20149;-69
2021/07/03 09:04:34;;;;;;;30.45;17.17;;;;;;;22.10;63.12;101679.81;4959229;28;20058;-69
2021/07/03 09:07:15;;;;;;;31.33;17.90;;;;;;;22.05;62.22;101676.53;4963259;28;20089;-69
2021/07/03 09:09:43;;;;;;;36.70;16.98;;;;;;;22.19;62.89;101670.16;4958659;28;20474;-69
2021/07/03 09:12:10;;;;;;;32.40;16.63;;;;;;;22.38;62.23;101678.81;4963964;28;20322;-69
2021/07/03 09:14:41;;;;;;;28.05;16.63;;;;;;;22.33;62.08;101669.25;4955490;28;20110;-70
2021/07/03 09:17:15;;;;;;;31.40;16.25;;;;;;;22.48;62.81;101673.63;4959325;28;20461;-69
2021/07/03 09:19:51;;;;;;;27.05;17.08;;;;;;;22.48;61.78;101667.31;4959171;28;20063;-70
2021/07/03 09:22:20;;;;;;;30.58;15.77;;;;;;;;;;4958686;28;20094;-70
2021/07/03 09:24:49;;;;;;;30.17;16.67;;;;;;;22.51;61.87;101667.13;4959430;28;20067;-69
2021/07/03 09:27:22;;;;;;;28.73;16.40;;;;;;;22.50;61.75;101668.94;4959495;28;20070;-69
2021/07/03 09:29:50;;;;;;;27.42;14.70;;;;;;;22.56;61.16;101668.53;4954706;28;20125;-69
2021/07/03 09:32:18;;;;;;;29.90;16.27;;;;;;;22.69;61.02;101668.50;4963617;28;20094;-70
2021/07/03 09:34:48;;;;;;;25.83;15.50;;;;;;;22.73;61.22;101669.16;4955408;28;20070;-70
2021/07/03 09:37:21;;;;;;;29.20;15.10;;;;;;;22.77;61.55;101676.16;4962208;28;20055;-71
2021/07/03 09:39:49;;;;;;;24.75;15.00;;;;;;;22.73;60.72;101675.50;4959327;28;20063;-70
2021/07/03 09:42:17;;;;;;;28.10;14.30;;;;;;;22.81;60.53;101683.09;4957799;28;20096;-70
2021/07/03 09:44:45;;;;;;;25.92;14.63;;;;;;;22.85;60.68;101671.03;4963659;28;20109;-71
2021/07/03 09:47:17;;;;;;;24.80;14.02;;;;;;;22.72;60.81;101681.03;4960511;28;20618;-70
2021/07/03 09:49:46;;;;;;;23.33;12.65;;;;;;;22.75;60.99;101675.41;4962660;28;20069;-71
2021/07/03 09:52:13;;;;;;;24.52;14.38;;;;;;;22.74;61.53;101679.94;4958329;28;20067;-71
2021/07/03 09:54:42;;;;;;;26.20;14.32;;;;;;;22.77;60.80;101681.59;4961494;28;20063;-71
2021/07/03 09:57:12;;;;;;;23.73;12.82;;;;;;;22.89;59.24;101679.84;4960828;28;20351;-70
2021/07/03 09:59:40;;;;;;;25.02;13.65;;;;;;;22.98;60.09;101670.16;4960212;28;20212;-71
2021/07/03 10:02:08;;;;;;;25.65;14.68;;;;;;;22.84;60.96;101674.72;4957372;28;20059;-71
2021/07/03 10:04:36;;;;;;;21.00;12.93;;;;;;;22.92;61.09;101677.78;4960485;28;20067;-71
2021/07/03 10:07:07;;;;;;;24.27;13.00;;;;;;;22.87;61.09;101676.38;4957619;28;20312;-71
2021/07/03 10:09:37;;;;;;;20.52;12.48;;;;;;;23.06;60.01;101671.38;4964472;28;20059;-71
2021/07/03 10:12:10;;;;;;;23.55;14.00;;;;;;;22.84;59.81;101673.88;4956924;28;20078;-72
2021/07/03 10:14:39;;;;;;;22.35;13.43;;;;;;;22.46;61.06;101677.41;4963607;28;20113;-70
2021/07/03 10:17:07;;;;;;;23.95;14.07;;;;;;;22.54;62.46;101667.75;4959011;28;20066;-70
2021/07/03 10:19:37;;;;;;;25.23;13.63;;;;;;;22.56;63.38;101662.22;4957906;28;20148;-70
2021/07/03 10:22:15;;;;;;;22.40;14.23;;;;;;;22.90;62.11;101657.09;4961604;28;20118;-69
2021/07/03 10:24:48;;;;;;;23.52;14.25;;;;;;;23.22;61.06;101654.81;4960771;28;20071;-69
2021/07/03 10:27:19;;;;;;;23.10;13.95;;;;;;;23.34;61.08;101635.84;4955711;28;20046;-70
2021/07/03 10:29:48;;;;;;;25.95;13.93;;;;;;;23.33;60.57;101632.25;4962332;28;20881;-68
2021/07/03 10:32:27;;;;;;;23.88;14.98;;;;;;;23.30;60.71;101632.47;4956178;28;20055;-68
2021/07/03 10:34:55;;;;;;;25.92;14.23;;;;;;;23.28;60.33;101624.41;4962621;28;20121;-68
2021/07/03 10:37:32;;;;;;;26.98;14.75;;;;;;;23.20;60.88;101620.53;4956588;28;20087;-69
2021/07/03 10:40:00;;;;;;;27.55;16.55;;;;;;;23.22;61.15;101622.13;4958315;28;20059;-70
2021/07/03 10:42:31;;;;;;;29.63;15.57;;;;;;;23.23;61.36;101621.16;4959939;28;20066;-69
2021/07/03 10:45:10;;;;;;;29.30;16.33;;;;;;;23.20;61.69;101606.91;4959277;28;20095;-69
2021/07/03 10:47:38;;;;;;;30.25;15.20;;;;;;;23.25;61.34;101602.00;4956442;28;20098;-70
2021/07/03 10:50:22;;;;;;;31.90;16.38;;;;;;;23.22;60.87;101594.06;4959575;28;20483;-70
2021/07/03 10:52:51;;;;;;;33.05;18.27;;;;;;;23.16;61.30;101599.97;4953855;28;20137;-69
2021/07/03 10:55:34;;;;;;;33.10;17.70;;;;;;;23.11;61.33;101594.84;4959052;28;20062;-70
2021/07/03 10:58:15;;;;;;;31.45;17.42;;;;;;;23.18;61.75;101596.13;4961887;28;20687;-71
2021/07/03 11:00:43;;;;;;;29.30;17.17;;;;;;;23.27;61.83;101594.59;4959246;28;20370;-70
2021/07/03 11:03:15;;;;;;;33.03;18.73;;;;;;;23.38;61.82;101591.94;4958300;28;20086;-69
2021/07/03 11:05:43;;;;;;;30.83;17.05;;;;;;;23.60;61.38;101584.88;4955973;28;20070;-70
2021/07/03 11:08:24;;;;;;;32.03;18.73;;;;;;;23.61;61.30;101586.63;4955156;28;20596;-70
2021/07/03 11:10:52;;;;;;;31.48;18.33;;;;;;;23.68;60.05;101586.06;4961011;28;20346;-70
2021/07/03 11:13:24;;;;;;;32.55;17.70;;;;;;;23.63;60.81;101585.53;4958888;28;20090;-69
2021/07/03 11:15:53;;;;;;;29.92;17.33;;;;;;;23.92;60.69;101585.16;4961608;28;20457;-69
2021/07/03 11:18:21;;;;;;;31.13;18.92;;;;;;;23.53;60.36;101578.16;4958379;28;20458;-70